Terminal Aerodrome Forecast
Issued by NWS Grand Junction, CO

Home | Current Version | Previous Version | Text Only | Print | Product List | Glossary On
Versions: 1 2 3 4 5 6 7 8 9 10 11 12 13 14 15 16 17 18 19 20 21 22 23 24 25
000
FTUS45 KGJT 270539
TAFGJT
TAF
KGJT 270539Z 2706/2806 11004KT P6SM VCSH SCT025 OVC050
      TEMPO 2706/2708 P6SM -SNRA OVC050
     FM271400 14004KT P6SM BKN050 OVC070
     FM272100 33005KT P6SM VCSH BKN050 OVC070
     FM280400 05004KT P6SM BKN080=

USA.gov is the U.S. government's official web portal to all federal, state and local government web resources and services.